sensor_id;sensor_type;location;lat;lon;timestamp;pressure;altitude;pressure_sealevel;temperature;humidity
58785;BME280;44557;51.862;19.378;2023-03-22T00:01:09;99139.65;;;7.13;84.60
58785;BME280;44557;51.862;19.378;2023-03-22T00:03:11;99138.39;;;6.99;85.13
58785;BME280;44557;51.862;19.378;2023-03-22T00:05:13;99140.35;;;6.90;85.62
58785;BME280;44557;51.862;19.378;2023-03-22T00:07:15;99143.08;;;6.59;86.53
58785;BME280;44557;51.862;19.378;2023-03-22T00:09:17;99142.70;;;6.36;87.77
58785;BME280;44557;51.862;19.378;2023-03-22T00:11:20;99140.88;;;6.46;87.17
58785;BME280;44557;51.862;19.378;2023-03-22T00:13:23;99138.38;;;6.46;87.36
58785;BME280;44557;51.862;19.378;2023-03-22T00:15:25;99132.52;;;6.62;86.30
58785;BME280;44557;51.862;19.378;2023-03-22T00:17:26;99130.40;;;6.58;86.92
58785;BME280;44557;51.862;19.378;2023-03-22T00:19:28;99126.70;;;6.59;86.77
58785;BME280;44557;51.862;19.378;2023-03-22T00:21:30;99124.36;;;6.89;85.80
58785;BME280;44557;51.862;19.378;2023-03-22T00:23:32;99122.17;;;6.95;85.38
58785;BME280;44557;51.862;19.378;2023-03-22T00:25:33;99119.77;;;6.95;85.17
58785;BME280;44557;51.862;19.378;2023-03-22T00:27:35;99122.11;;;6.64;86.73
58785;BME280;44557;51.862;19.378;2023-03-22T00:29:37;99120.35;;;6.83;86.20
58785;BME280;44557;51.862;19.378;2023-03-22T00:31:38;99122.23;;;6.59;86.76
58785;BME280;44557;51.862;19.378;2023-03-22T00:33:41;99118.91;;;6.55;87.15
58785;BME280;44557;51.862;19.378;2023-03-22T00:35:53;99119.48;;;6.56;87.57
58785;BME280;44557;51.862;19.378;2023-03-22T00:37:55;99120.61;;;6.47;87.92
58785;BME280;44557;51.862;19.378;2023-03-22T00:39:56;99118.69;;;6.39;88.14
58785;BME280;44557;51.862;19.378;2023-03-22T00:41:58;99120.31;;;6.56;87.43
58785;BME280;44557;51.862;19.378;2023-03-22T00:44:00;99118.99;;;6.61;87.42
58785;BME280;44557;51.862;19.378;2023-03-22T00:46:02;99120.58;;;6.56;87.64
58785;BME280;44557;51.862;19.378;2023-03-22T00:48:04;99120.86;;;6.59;87.43
58785;BME280;44557;51.862;19.378;2023-03-22T00:50:06;99121.05;;;6.50;88.07
58785;BME280;44557;51.862;19.378;2023-03-22T00:52:08;99111.77;;;6.54;88.22
58785;BME280;44557;51.862;19.378;2023-03-22T00:54:09;99114.02;;;6.59;87.44
58785;BME280;44557;51.862;19.378;2023-03-22T00:56:12;99112.70;;;6.56;87.73
58785;BME280;44557;51.862;19.378;2023-03-22T00:58:14;99109.71;;;6.29;89.41
58785;BME280;44557;51.862;19.378;2023-03-22T01:00:16;99108.53;;;6.50;89.23
58785;BME280;44557;51.862;19.378;2023-03-22T01:02:17;99104.86;;;6.50;88.49
58785;BME280;44557;51.862;19.378;2023-03-22T01:04:19;99099.34;;;6.28;89.98
58785;BME280;44557;51.862;19.378;2023-03-22T01:06:26;99094.48;;;6.29;89.89
58785;BME280;44557;51.862;19.378;2023-03-22T01:08:27;99094.38;;;6.29;90.31
58785;BME280;44557;51.862;19.378;2023-03-22T01:10:35;99095.42;;;6.22;90.50
58785;BME280;44557;51.862;19.378;2023-03-22T01:12:37;99096.31;;;6.30;90.50
58785;BME280;44557;51.862;19.378;2023-03-22T01:14:39;99092.96;;;6.35;89.62
58785;BME280;44557;51.862;19.378;2023-03-22T01:16:41;99094.19;;;6.33;89.76
58785;BME280;44557;51.862;19.378;2023-03-22T01:18:43;99093.80;;;6.35;89.44
58785;BME280;44557;51.862;19.378;2023-03-22T01:20:45;99094.52;;;6.46;88.83
58785;BME280;44557;51.862;19.378;2023-03-22T01:22:46;99095.96;;;6.42;88.64
58785;BME280;44557;51.862;19.378;2023-03-22T01:24:49;99093.75;;;6.28;89.57
58785;BME280;44557;51.862;19.378;2023-03-22T01:26:50;99090.62;;;6.02;90.80
58785;BME280;44557;51.862;19.378;2023-03-22T01:28:52;99088.31;;;6.24;90.17
58785;BME280;44557;51.862;19.378;2023-03-22T01:30:54;99084.51;;;6.26;89.65
58785;BME280;44557;51.862;19.378;2023-03-22T01:32:56;99079.70;;;6.14;90.44
58785;BME280;44557;51.862;19.378;2023-03-22T01:34:57;99080.30;;;6.28;90.22
58785;BME280;44557;51.862;19.378;2023-03-22T01:36:59;99075.30;;;6.25;90.20
58785;BME280;44557;51.862;19.378;2023-03-22T01:39:01;99073.23;;;6.20;90.38
58785;BME280;44557;51.862;19.378;2023-03-22T01:41:03;99069.06;;;6.39;89.69
58785;BME280;44557;51.862;19.378;2023-03-22T01:43:12;99066.73;;;6.31;90.02
58785;BME280;44557;51.862;19.378;2023-03-22T01:47:15;99061.29;;;6.32;89.92
58785;BME280;44557;51.862;19.378;2023-03-22T01:49:26;99060.64;;;6.25;90.30
58785;BME280;44557;51.862;19.378;2023-03-22T01:51:29;99062.41;;;6.26;90.51
58785;BME280;44557;51.862;19.378;2023-03-22T01:53:57;99056.16;;;6.28;90.83
58785;BME280;44557;51.862;19.378;2023-03-22T01:56:01;99050.48;;;6.28;90.41
58785;BME280;44557;51.862;19.378;2023-03-22T01:58:03;99047.38;;;6.11;91.17
58785;BME280;44557;51.862;19.378;2023-03-22T02:00:08;99045.40;;;6.22;91.37
58785;BME280;44557;51.862;19.378;2023-03-22T02:02:16;99045.23;;;6.25;91.13
58785;BME280;44557;51.862;19.378;2023-03-22T02:04:21;99036.50;;;6.11;91.64
58785;BME280;44557;51.862;19.378;2023-03-22T02:06:24;99036.58;;;6.20;91.63
58785;BME280;44557;51.862;19.378;2023-03-22T02:08:27;99032.52;;;6.04;91.96
58785;BME280;44557;51.862;19.378;2023-03-22T02:10:29;99032.30;;;6.10;92.26
58785;BME280;44557;51.862;19.378;2023-03-22T02:15:36;99018.17;;;5.90;93.03
58785;BME280;44557;51.862;19.378;2023-03-22T02:27:38;99002.89;;;5.94;93.20
58785;BME280;44557;51.862;19.378;2023-03-22T02:39:34;99006.98;;;6.15;92.87
58785;BME280;44557;51.862;19.378;2023-03-22T02:43:50;99003.73;;;6.01;94.26
58785;BME280;44557;51.862;19.378;2023-03-22T02:46:04;99004.23;;;6.05;94.43
58785;BME280;44557;51.862;19.378;2023-03-22T02:48:11;98999.66;;;6.03;94.33
58785;BME280;44557;51.862;19.378;2023-03-22T02:50:14;98999.39;;;6.13;94.29
58785;BME280;44557;51.862;19.378;2023-03-22T02:52:31;98999.14;;;6.16;94.15
58785;BME280;44557;51.862;19.378;2023-03-22T02:54:50;98999.02;;;6.23;94.24
58785;BME280;44557;51.862;19.378;2023-03-22T02:57:03;99000.19;;;6.21;94.28
58785;BME280;44557;51.862;19.378;2023-03-22T02:59:07;98988.55;;;6.19;94.18
58785;BME280;44557;51.862;19.378;2023-03-22T03:01:27;98983.98;;;6.27;94.11
58785;BME280;44557;51.862;19.378;2023-03-22T03:03:30;98986.86;;;6.29;94.07
58785;BME280;44557;51.862;19.378;2023-03-22T03:05:33;98983.79;;;6.37;93.73
58785;BME280;44557;51.862;19.378;2023-03-22T03:07:36;98985.02;;;6.38;93.62
58785;BME280;44557;51.862;19.378;2023-03-22T03:09:40;98988.19;;;6.47;93.10
58785;BME280;44557;51.862;19.378;2023-03-22T03:11:51;98989.75;;;6.51;93.00
58785;BME280;44557;51.862;19.378;2023-03-22T03:13:53;98997.48;;;6.53;93.16
58785;BME280;44557;51.862;19.378;2023-03-22T03:15:56;98997.10;;;6.44;93.60
58785;BME280;44557;51.862;19.378;2023-03-22T03:22:24;98992.48;;;6.60;93.33
58785;BME280;44557;51.862;19.378;2023-03-22T03:24:35;98996.49;;;6.52;93.72
58785;BME280;44557;51.862;19.378;2023-03-22T03:31:40;98988.48;;;6.76;93.35
58785;BME280;44557;51.862;19.378;2023-03-22T03:34:05;98989.87;;;6.65;94.08
58785;BME280;44557;51.862;19.378;2023-03-22T03:36:11;98981.85;;;6.70;93.37
58785;BME280;44557;51.862;19.378;2023-03-22T03:38:21;98983.45;;;6.67;94.07
58785;BME280;44557;51.862;19.378;2023-03-22T03:40:30;98985.66;;;6.75;93.68
58785;BME280;44557;51.862;19.378;2023-03-22T03:42:34;98991.34;;;6.74;93.42
58785;BME280;44557;51.862;19.378;2023-03-22T03:44:38;98990.73;;;6.62;94.63
58785;BME280;44557;51.862;19.378;2023-03-22T03:46:40;98992.79;;;6.69;94.36
58785;BME280;44557;51.862;19.378;2023-03-22T03:48:45;98989.05;;;6.86;93.67
58785;BME280;44557;51.862;19.378;2023-03-22T03:50:50;98990.95;;;6.80;93.45
58785;BME280;44557;51.862;19.378;2023-03-22T03:52:53;98990.52;;;6.79;93.93
58785;BME280;44557;51.862;19.378;2023-03-22T03:54:55;98991.73;;;6.86;93.08
58785;BME280;44557;51.862;19.378;2023-03-22T03:56:57;98996.55;;;6.82;93.84
58785;BME280;44557;51.862;19.378;2023-03-22T03:58:58;98995.06;;;6.72;94.06
58785;BME280;44557;51.862;19.378;2023-03-22T04:01:00;98993.70;;;6.90;93.74
58785;BME280;44557;51.862;19.378;2023-03-22T04:03:02;98992.48;;;6.89;93.43
58785;BME280;44557;51.862;19.378;2023-03-22T04:05:04;98990.95;;;6.88;93.72
58785;BME280;44557;51.862;19.378;2023-03-22T04:07:07;98989.25;;;6.73;94.38
58785;BME280;44557;51.862;19.378;2023-03-22T04:09:09;98984.36;;;6.78;94.62
58785;BME280;44557;51.862;19.378;2023-03-22T04:11:10;98982.98;;;6.93;93.91
58785;BME280;44557;51.862;19.378;2023-03-22T04:13:12;98981.75;;;6.87;94.37
58785;BME280;44557;51.862;19.378;2023-03-22T04:15:14;98982.36;;;7.05;93.42
58785;BME280;44557;51.862;19.378;2023-03-22T04:17:16;98987.55;;;7.01;93.63
58785;BME280;44557;51.862;19.378;2023-03-22T04:19:18;98988.23;;;6.99;93.77
58785;BME280;44557;51.862;19.378;2023-03-22T04:21:20;98987.23;;;6.91;94.54
58785;BME280;44557;51.862;19.378;2023-03-22T04:23:22;98986.55;;;6.94;94.10
58785;BME280;44557;51.862;19.378;2023-03-22T04:25:26;98977.25;;;6.94;94.66
58785;BME280;44557;51.862;19.378;2023-03-22T04:27:30;98982.35;;;6.87;95.17
58785;BME280;44557;51.862;19.378;2023-03-22T04:29:31;98982.03;;;6.86;95.30
58785;BME280;44557;51.862;19.378;2023-03-22T04:31:36;98981.22;;;6.92;94.87
58785;BME280;44557;51.862;19.378;2023-03-22T04:33:39;98976.10;;;6.87;96.04
58785;BME280;44557;51.862;19.378;2023-03-22T04:35:41;98974.71;;;7.03;94.71
58785;BME280;44557;51.862;19.378;2023-03-22T04:37:42;98977.75;;;7.01;95.19
58785;BME280;44557;51.862;19.378;2023-03-22T04:39:44;98977.92;;;6.95;95.63
58785;BME280;44557;51.862;19.378;2023-03-22T04:41:46;98974.44;;;7.10;94.89
58785;BME280;44557;51.862;19.378;2023-03-22T04:43:47;98968.77;;;7.01;95.10
58785;BME280;44557;51.862;19.378;2023-03-22T04:45:51;98975.46;;;6.96;95.68
58785;BME280;44557;51.862;19.378;2023-03-22T04:47:55;98970.34;;;7.02;95.63
58785;BME280;44557;51.862;19.378;2023-03-22T04:49:56;98970.97;;;6.99;95.70
58785;BME280;44557;51.862;19.378;2023-03-22T04:51:58;98971.81;;;6.97;95.66
58785;BME280;44557;51.862;19.378;2023-03-22T04:53:59;98974.29;;;6.94;96.15
58785;BME280;44557;51.862;19.378;2023-03-22T04:56:01;98977.09;;;6.94;96.22
58785;BME280;44557;51.862;19.378;2023-03-22T04:58:05;98976.56;;;7.05;95.79
58785;BME280;44557;51.862;19.378;2023-03-22T05:00:07;98977.06;;;6.97;96.01
58785;BME280;44557;51.862;19.378;2023-03-22T05:02:10;98977.65;;;6.48;98.63
58785;BME280;44557;51.862;19.378;2023-03-22T05:04:12;98979.65;;;6.47;99.36
58785;BME280;44557;51.862;19.378;2023-03-22T05:06:13;98977.79;;;6.40;99.43
58785;BME280;44557;51.862;19.378;2023-03-22T05:08:15;98981.48;;;6.13;99.60
58785;BME280;44557;51.862;19.378;2023-03-22T05:10:17;98979.45;;;5.66;99.66
58785;BME280;44557;51.862;19.378;2023-03-22T05:12:19;98983.63;;;5.83;100.00
58785;BME280;44557;51.862;19.378;2023-03-22T05:14:20;98975.91;;;6.34;100.00
58785;BME280;44557;51.862;19.378;2023-03-22T05:16:23;98974.73;;;6.59;99.91
58785;BME280;44557;51.862;19.378;2023-03-22T05:18:25;98973.21;;;6.46;100.00
58785;BME280;44557;51.862;19.378;2023-03-22T05:20:26;98971.36;;;6.32;100.00
58785;BME280;44557;51.862;19.378;2023-03-22T05:22:28;98972.30;;;6.28;100.00
58785;BME280;44557;51.862;19.378;2023-03-22T05:24:30;98974.91;;;6.63;100.00
58785;BME280;44557;51.862;19.378;2023-03-22T05:26:32;98972.84;;;6.76;100.00
58785;BME280;44557;51.862;19.378;2023-03-22T05:28:33;98974.77;;;6.88;99.25
58785;BME280;44557;51.862;19.378;2023-03-22T05:30:36;98972.22;;;6.96;99.14
58785;BME280;44557;51.862;19.378;2023-03-22T05:32:37;98973.83;;;7.05;98.76
58785;BME280;44557;51.862;19.378;2023-03-22T05:34:43;98969.27;;;7.15;98.34
58785;BME280;44557;51.862;19.378;2023-03-22T05:37:08;98971.18;;;7.13;98.18
58785;BME280;44557;51.862;19.378;2023-03-22T05:39:10;98967.74;;;7.16;98.30
58785;BME280;44557;51.862;19.378;2023-03-22T05:41:13;98968.71;;;7.24;98.01
58785;BME280;44557;51.862;19.378;2023-03-22T05:43:14;98968.25;;;7.22;98.22
58785;BME280;44557;51.862;19.378;2023-03-22T05:45:17;98967.80;;;7.23;97.76
58785;BME280;44557;51.862;19.378;2023-03-22T05:47:19;98968.65;;;7.25;98.18
58785;BME280;44557;51.862;19.378;2023-03-22T05:49:21;98970.63;;;7.31;97.63
58785;BME280;44557;51.862;19.378;2023-03-22T05:51:23;98970.46;;;7.35;97.85
58785;BME280;44557;51.862;19.378;2023-03-22T05:53:26;98971.02;;;7.43;97.49
58785;BME280;44557;51.862;19.378;2023-03-22T05:55:27;98973.74;;;7.37;97.23
58785;BME280;44557;51.862;19.378;2023-03-22T05:57:32;98975.42;;;7.44;97.47
58785;BME280;44557;51.862;19.378;2023-03-22T05:59:33;98978.31;;;7.42;97.35
58785;BME280;44557;51.862;19.378;2023-03-22T06:01:35;98979.05;;;7.47;97.42
58785;BME280;44557;51.862;19.378;2023-03-22T06:03:37;98983.00;;;7.49;97.25
58785;BME280;44557;51.862;19.378;2023-03-22T06:05:39;98981.18;;;7.50;97.25
58785;BME280;44557;51.862;19.378;2023-03-22T06:07:42;98983.34;;;7.59;96.35
58785;BME280;44557;51.862;19.378;2023-03-22T06:09:43;98979.01;;;7.56;96.43
58785;BME280;44557;51.862;19.378;2023-03-22T06:11:45;98985.16;;;7.64;96.42
58785;BME280;44557;51.862;19.378;2023-03-22T06:13:47;98988.69;;;7.72;95.79
58785;BME280;44557;51.862;19.378;2023-03-22T06:15:49;98988.09;;;7.60;96.25
58785;BME280;44557;51.862;19.378;2023-03-22T06:17:51;98988.77;;;7.61;96.10
58785;BME280;44557;51.862;19.378;2023-03-22T06:19:53;98984.58;;;7.67;96.08
58785;BME280;44557;51.862;19.378;2023-03-22T06:21:57;98985.75;;;7.73;95.49
58785;BME280;44557;51.862;19.378;2023-03-22T06:23:59;98980.02;;;7.75;95.49
58785;BME280;44557;51.862;19.378;2023-03-22T06:26:02;98978.08;;;7.63;96.10
58785;BME280;44557;51.862;19.378;2023-03-22T06:28:04;98976.81;;;7.69;95.74
58785;BME280;44557;51.862;19.378;2023-03-22T06:30:06;98977.85;;;7.72;95.56
58785;BME280;44557;51.862;19.378;2023-03-22T06:32:08;98978.14;;;7.73;95.61
58785;BME280;44557;51.862;19.378;2023-03-22T06:34:10;98976.00;;;7.77;95.49
58785;BME280;44557;51.862;19.378;2023-03-22T06:36:12;98973.41;;;7.74;95.73
58785;BME280;44557;51.862;19.378;2023-03-22T06:38:14;98974.50;;;7.76;95.33
58785;BME280;44557;51.862;19.378;2023-03-22T06:40:16;98973.70;;;7.88;95.03
58785;BME280;44557;51.862;19.378;2023-03-22T06:42:17;98973.00;;;7.83;95.03
58785;BME280;44557;51.862;19.378;2023-03-22T06:44:19;98975.54;;;7.88;94.73
58785;BME280;44557;51.862;19.378;2023-03-22T06:46:22;98971.07;;;7.77;95.41
58785;BME280;44557;51.862;19.378;2023-03-22T06:48:24;98970.03;;;7.87;95.15
58785;BME280;44557;51.862;19.378;2023-03-22T06:50:26;98973.00;;;7.90;94.52
58785;BME280;44557;51.862;19.378;2023-03-22T06:52:28;98973.64;;;7.88;94.47
58785;BME280;44557;51.862;19.378;2023-03-22T06:54:30;98971.41;;;7.94;94.55
58785;BME280;44557;51.862;19.378;2023-03-22T06:56:31;98971.38;;;8.01;94.16
58785;BME280;44557;51.862;19.378;2023-03-22T06:58:33;98965.25;;;7.98;94.42
58785;BME280;44557;51.862;19.378;2023-03-22T07:00:34;98967.91;;;8.03;94.43
58785;BME280;44557;51.862;19.378;2023-03-22T07:02:36;98961.92;;;8.04;94.38
58785;BME280;44557;51.862;19.378;2023-03-22T07:04:38;98962.54;;;8.13;94.00
58785;BME280;44557;51.862;19.378;2023-03-22T07:06:40;98959.38;;;8.03;94.39
58785;BME280;44557;51.862;19.378;2023-03-22T07:08:41;98963.74;;;8.14;94.38
58785;BME280;44557;51.862;19.378;2023-03-22T07:10:48;98967.25;;;8.18;94.07
58785;BME280;44557;51.862;19.378;2023-03-22T07:12:50;98962.14;;;8.22;94.26
58785;BME280;44557;51.862;19.378;2023-03-22T07:14:51;98960.05;;;8.13;94.77
58785;BME280;44557;51.862;19.378;2023-03-22T07:16:53;98960.55;;;8.19;94.76
58785;BME280;44557;51.862;19.378;2023-03-22T07:18:55;98956.63;;;8.25;94.45
58785;BME280;44557;51.862;19.378;2023-03-22T07:20:57;98951.11;;;8.22;94.62
58785;BME280;44557;51.862;19.378;2023-03-22T07:22:59;98948.08;;;8.34;94.31
58785;BME280;44557;51.862;19.378;2023-03-22T07:25:01;98945.27;;;8.30;94.46
58785;BME280;44557;51.862;19.378;2023-03-22T07:27:02;98941.67;;;8.34;94.79
58785;BME280;44557;51.862;19.378;2023-03-22T07:29:04;98941.73;;;8.50;93.96
58785;BME280;44557;51.862;19.378;2023-03-22T07:31:08;98943.37;;;8.53;93.72
58785;BME280;44557;51.862;19.378;2023-03-22T07:33:11;98941.87;;;8.57;93.13
58785;BME280;44557;51.862;19.378;2023-03-22T07:35:13;98940.45;;;8.64;93.39
58785;BME280;44557;51.862;19.378;2023-03-22T07:37:16;98942.19;;;8.72;93.52
58785;BME280;44557;51.862;19.378;2023-03-22T07:39:18;98943.41;;;8.72;92.98
58785;BME280;44557;51.862;19.378;2023-03-22T07:41:20;98944.48;;;8.81;92.89
58785;BME280;44557;51.862;19.378;2023-03-22T07:43:24;98941.92;;;8.96;92.14
58785;BME280;44557;51.862;19.378;2023-03-22T07:45:25;98942.42;;;9.02;91.88
58785;BME280;44557;51.862;19.378;2023-03-22T07:47:27;98938.12;;;8.83;92.48
58785;BME280;44557;51.862;19.378;2023-03-22T07:49:29;98939.75;;;8.87;93.06
58785;BME280;44557;51.862;19.378;2023-03-22T07:51:31;98945.85;;;8.91;93.03
58785;BME280;44557;51.862;19.378;2023-03-22T07:53:33;98946.56;;;8.94;93.28
58785;BME280;44557;51.862;19.378;2023-03-22T07:55:37;98942.21;;;8.95;93.24
58785;BME280;44557;51.862;19.378;2023-03-22T07:57:39;98938.20;;;8.85;93.06
58785;BME280;44557;51.862;19.378;2023-03-22T07:59:41;98947.27;;;8.82;93.48
58785;BME280;44557;51.862;19.378;2023-03-22T08:01:44;98947.13;;;8.79;93.61
58785;BME280;44557;51.862;19.378;2023-03-22T08:03:46;98942.03;;;8.81;93.81
58785;BME280;44557;51.862;19.378;2023-03-22T08:05:48;98941.52;;;8.91;93.53
58785;BME280;44557;51.862;19.378;2023-03-22T08:07:51;98941.48;;;9.10;93.25
58785;BME280;44557;51.862;19.378;2023-03-22T08:09:54;98941.14;;;9.14;93.13
58785;BME280;44557;51.862;19.378;2023-03-22T08:11:56;98935.69;;;9.21;92.87
58785;BME280;44557;51.862;19.378;2023-03-22T08:13:58;98936.82;;;9.27;92.73
58785;BME280;44557;51.862;19.378;2023-03-22T08:16:00;98937.01;;;9.23;92.91
58785;BME280;44557;51.862;19.378;2023-03-22T08:18:02;98940.95;;;9.21;93.23
58785;BME280;44557;51.862;19.378;2023-03-22T08:20:04;98943.44;;;9.25;93.25
58785;BME280;44557;51.862;19.378;2023-03-22T08:22:09;98945.26;;;9.28;93.45
58785;BME280;44557;51.862;19.378;2023-03-22T08:24:12;98944.33;;;9.29;93.52
58785;BME280;44557;51.862;19.378;2023-03-22T08:26:14;98942.44;;;9.31;93.35
58785;BME280;44557;51.862;19.378;2023-03-22T08:28:16;98935.21;;;9.47;92.91
58785;BME280;44557;51.862;19.378;2023-03-22T08:30:18;98936.91;;;9.66;92.38
58785;BME280;44557;51.862;19.378;2023-03-22T08:32:19;98940.48;;;9.76;91.58
58785;BME280;44557;51.862;19.378;2023-03-22T08:34:21;98936.73;;;9.94;90.60
58785;BME280;44557;51.862;19.378;2023-03-22T08:36:23;98934.45;;;10.25;89.39
58785;BME280;44557;51.862;19.378;2023-03-22T08:38:25;98935.46;;;10.24;88.72
58785;BME280;44557;51.862;19.378;2023-03-22T08:40:26;98931.91;;;10.18;88.95
58785;BME280;44557;51.862;19.378;2023-03-22T08:42:28;98929.09;;;10.07;89.04
58785;BME280;44557;51.862;19.378;2023-03-22T08:44:30;98926.88;;;10.04;89.69
58785;BME280;44557;51.862;19.378;2023-03-22T08:46:31;98926.45;;;10.35;88.41
58785;BME280;44557;51.862;19.378;2023-03-22T08:48:34;98922.55;;;10.46;88.34
58785;BME280;44557;51.862;19.378;2023-03-22T08:50:38;98922.42;;;10.70;87.30
58785;BME280;44557;51.862;19.378;2023-03-22T08:52:40;98921.29;;;11.02;85.27
58785;BME280;44557;51.862;19.378;2023-03-22T08:54:41;98926.79;;;10.78;85.97
58785;BME280;44557;51.862;19.378;2023-03-22T08:56:43;98925.58;;;10.45;87.31
58785;BME280;44557;51.862;19.378;2023-03-22T08:58:45;98925.94;;;10.40;87.87
58785;BME280;44557;51.862;19.378;2023-03-22T09:00:47;98925.92;;;10.32;88.50
58785;BME280;44557;51.862;19.378;2023-03-22T09:02:48;98928.48;;;10.32;88.71
58785;BME280;44557;51.862;19.378;2023-03-22T09:04:50;98924.98;;;10.24;88.70
58785;BME280;44557;51.862;19.378;2023-03-22T09:06:52;98923.48;;;10.23;89.28
58785;BME280;44557;51.862;19.378;2023-03-22T09:08:54;98920.88;;;10.33;89.14
58785;BME280;44557;51.862;19.378;2023-03-22T09:10:56;98919.29;;;10.35;88.98
58785;BME280;44557;51.862;19.378;2023-03-22T09:12:59;98922.63;;;10.43;88.72
58785;BME280;44557;51.862;19.378;2023-03-22T09:15:01;98918.15;;;10.47;88.65
58785;BME280;44557;51.862;19.378;2023-03-22T09:17:03;98915.84;;;10.45;88.72
58785;BME280;44557;51.862;19.378;2023-03-22T09:19:05;98914.55;;;10.56;88.64
58785;BME280;44557;51.862;19.378;2023-03-22T09:21:08;98909.27;;;10.70;88.11
58785;BME280;44557;51.862;19.378;2023-03-22T09:23:11;98915.94;;;10.72;87.87
58785;BME280;44557;51.862;19.378;2023-03-22T09:25:14;98919.84;;;10.90;87.34
58785;BME280;44557;51.862;19.378;2023-03-22T09:27:15;98915.54;;;10.99;87.19
58785;BME280;44557;51.862;19.378;2023-03-22T09:29:17;98916.93;;;10.94;87.36
58785;BME280;44557;51.862;19.378;2023-03-22T09:31:19;98909.88;;;10.99;87.31
58785;BME280;44557;51.862;19.378;2023-03-22T09:33:21;98908.12;;;11.16;86.63
58785;BME280;44557;51.862;19.378;2023-03-22T09:35:23;98909.43;;;11.30;86.37
58785;BME280;44557;51.862;19.378;2023-03-22T09:37:25;98909.01;;;11.35;86.01
58785;BME280;44557;51.862;19.378;2023-03-22T09:39:30;98909.06;;;11.27;86.26
58785;BME280;44557;51.862;19.378;2023-03-22T09:41:40;98906.78;;;11.35;86.07
58785;BME280;44557;51.862;19.378;2023-03-22T09:43:50;98905.14;;;11.32;86.49
58785;BME280;44557;51.862;19.378;2023-03-22T09:45:55;98905.70;;;11.21;86.59
58785;BME280;44557;51.862;19.378;2023-03-22T09:47:57;98907.16;;;11.15;86.87
58785;BME280;44557;51.862;19.378;2023-03-22T09:50:06;98908.52;;;10.98;87.78
58785;BME280;44557;51.862;19.378;2023-03-22T09:52:13;98913.45;;;10.97;87.82
58785;BME280;44557;51.862;19.378;2023-03-22T09:54:22;98909.49;;;10.96;88.17
58785;BME280;44557;51.862;19.378;2023-03-22T09:56:29;98908.19;;;11.01;88.19
58785;BME280;44557;51.862;19.378;2023-03-22T09:58:51;98906.55;;;11.12;87.96
58785;BME280;44557;51.862;19.378;2023-03-22T10:00:59;98904.36;;;11.21;87.69
58785;BME280;44557;51.862;19.378;2023-03-22T10:05:56;98902.17;;;11.79;85.78
58785;BME280;44557;51.862;19.378;2023-03-22T10:08:13;98905.77;;;12.19;84.36
58785;BME280;44557;51.862;19.378;2023-03-22T10:10:20;98905.67;;;12.51;82.71
58785;BME280;44557;51.862;19.378;2023-03-22T10:12:57;98903.26;;;12.83;80.92
58785;BME280;44557;51.862;19.378;2023-03-22T10:17:17;98899.98;;;12.60;80.98
58785;BME280;44557;51.862;19.378;2023-03-22T10:19:47;98900.75;;;12.68;81.05
58785;BME280;44557;51.862;19.378;2023-03-22T10:21:51;98896.60;;;13.07;79.47
58785;BME280;44557;51.862;19.378;2023-03-22T10:23:58;98896.20;;;12.98;79.44
58785;BME280;44557;51.862;19.378;2023-03-22T10:26:03;98893.75;;;13.12;79.15
58785;BME280;44557;51.862;19.378;2023-03-22T10:28:19;98894.41;;;13.44;77.54
58785;BME280;44557;51.862;19.378;2023-03-22T10:30:24;98889.99;;;13.20;78.17
58785;BME280;44557;51.862;19.378;2023-03-22T10:32:42;98889.26;;;13.25;78.30
58785;BME280;44557;51.862;19.378;2023-03-22T10:34:46;98887.64;;;12.90;80.02
58785;BME280;44557;51.862;19.378;2023-03-22T10:36:49;98882.31;;;13.32;78.97
58785;BME280;44557;51.862;19.378;2023-03-22T10:39:04;98883.29;;;13.73;77.45
58785;BME280;44557;51.862;19.378;2023-03-22T10:41:12;98884.93;;;13.51;77.48
58785;BME280;44557;51.862;19.378;2023-03-22T10:43:21;98884.14;;;13.20;78.83
58785;BME280;44557;51.862;19.378;2023-03-22T10:45:27;98884.59;;;13.30;78.83
58785;BME280;44557;51.862;19.378;2023-03-22T10:47:39;98882.03;;;13.34;78.62
58785;BME280;44557;51.862;19.378;2023-03-22T10:49:48;98876.39;;;13.72;77.26
58785;BME280;44557;51.862;19.378;2023-03-22T10:51:57;98877.61;;;13.90;76.55
58785;BME280;44557;51.862;19.378;2023-03-22T10:54:01;98872.23;;;14.29;75.56
58785;BME280;44557;51.862;19.378;2023-03-22T10:56:04;98870.80;;;14.21;74.97
58785;BME280;44557;51.862;19.378;2023-03-22T10:58:13;98870.40;;;14.28;74.98
58785;BME280;44557;51.862;19.378;2023-03-22T11:00:16;98872.33;;;14.24;75.01
58785;BME280;44557;51.862;19.378;2023-03-22T11:02:18;98860.93;;;14.49;74.49
58785;BME280;44557;51.862;19.378;2023-03-22T11:04:21;98857.48;;;14.76;73.77
58785;BME280;44557;51.862;19.378;2023-03-22T11:06:29;98856.52;;;14.86;72.93
58785;BME280;44557;51.862;19.378;2023-03-22T11:08:48;98854.36;;;14.99;72.26
58785;BME280;44557;51.862;19.378;2023-03-22T11:10:51;98849.63;;;15.03;72.00
58785;BME280;44557;51.862;19.378;2023-03-22T11:15:21;98851.44;;;15.15;71.56
58785;BME280;44557;51.862;19.378;2023-03-22T11:17:24;98846.33;;;15.07;71.50
58785;BME280;44557;51.862;19.378;2023-03-22T11:19:39;98845.14;;;15.24;71.06
58785;BME280;44557;51.862;19.378;2023-03-22T11:21:41;98836.40;;;15.03;71.87
58785;BME280;44557;51.862;19.378;2023-03-22T11:23:53;98835.42;;;14.99;72.01
58785;BME280;44557;51.862;19.378;2023-03-22T11:26:06;98835.91;;;15.00;72.75
58785;BME280;44557;51.862;19.378;2023-03-22T11:28:17;98835.70;;;14.54;73.69
58785;BME280;44557;51.862;19.378;2023-03-22T11:30:23;98833.65;;;14.66;73.15
58785;BME280;44557;51.862;19.378;2023-03-22T11:34:30;98832.16;;;14.57;73.47
58785;BME280;44557;51.862;19.378;2023-03-22T11:36:42;98831.34;;;14.54;73.61
58785;BME280;44557;51.862;19.378;2023-03-22T11:38:44;98824.38;;;14.53;73.95
58785;BME280;44557;51.862;19.378;2023-03-22T11:40:54;98821.55;;;14.38;74.32